Arnold Bay, Vermont
Current Conditions -  °F | °C
As of 12:35 AM on Thursday 27 Nov 2014 (Local Time) from K6B0 Reporting Station
Light Snow Light Snow  
Wind Chill: 21°   Ceiling: 500
Heat Index: 29°   Visibility: 1.2mi
Dew Point: 29°   Wind: 8mph
Humidity: 100%   Direction: 360°N
Pressure: 29.89"   Gusts: NA
Location:  44.0804°N, 73.3324°W
Report Text: K6B0 270535Z AUTO 36007KT 1 1/4SM -SN OVC005 M02/M02 A2989 RMK AO2 P0001 T10181018
Loading
Personal Weather Stations






























Interactive Weather Map New forecast layout! Learn more

10-Day Weather Forecast

Advertisements
Track Severe Weather on mobile